sensor_id;sensor_type;location;lat;lon;timestamp;temperature;humidity
5246;DHT22;54412;51.206;6.888;2022-12-29T00:01:36;10.80;99.90
5246;DHT22;54412;51.206;6.888;2022-12-29T00:04:03;10.70;99.90
5246;DHT22;54412;51.206;6.888;2022-12-29T00:06:30;10.70;99.90
5246;DHT22;54412;51.206;6.888;2022-12-29T00:08:56;10.70;99.90
5246;DHT22;54412;51.206;6.888;2022-12-29T00:11:24;10.70;99.90
5246;DHT22;54412;51.206;6.888;2022-12-29T00:13:52;10.80;99.90
5246;DHT22;54412;51.206;6.888;2022-12-29T00:16:40;10.70;99.90
5246;DHT22;54412;51.206;6.888;2022-12-29T00:19:07;10.70;99.90
5246;DHT22;54412;51.206;6.888;2022-12-29T00:21:52;10.70;99.90
5246;DHT22;54412;51.206;6.888;2022-12-29T00:24:47;10.70;99.90
5246;DHT22;54412;51.206;6.888;2022-12-29T00:27:32;10.70;99.90
5246;DHT22;54412;51.206;6.888;2022-12-29T00:30:21;10.70;99.90
5246;DHT22;54412;51.206;6.888;2022-12-29T00:33:18;10.70;99.90
5246;DHT22;54412;51.206;6.888;2022-12-29T00:38:51;10.80;99.90
5246;DHT22;54412;51.206;6.888;2022-12-29T00:41:37;10.80;99.90
5246;DHT22;54412;51.206;6.888;2022-12-29T00:44:21;10.80;99.90
5246;DHT22;54412;51.206;6.888;2022-12-29T00:46:47;10.90;99.90
5246;DHT22;54412;51.206;6.888;2022-12-29T00:49:13;10.80;99.90
5246;DHT22;54412;51.206;6.888;2022-12-29T00:52:09;10.80;99.90
5246;DHT22;54412;51.206;6.888;2022-12-29T00:54:38;10.80;99.90
5246;DHT22;54412;51.206;6.888;2022-12-29T00:57:06;10.80;99.90
5246;DHT22;54412;51.206;6.888;2022-12-29T00:59:38;10.80;99.90
5246;DHT22;54412;51.206;6.888;2022-12-29T01:02:05;10.90;99.90
5246;DHT22;54412;51.206;6.888;2022-12-29T01:04:31;11.00;99.90
5246;DHT22;54412;51.206;6.888;2022-12-29T01:06:57;11.00;99.90
5246;DHT22;54412;51.206;6.888;2022-12-29T01:09:23;11.00;99.90
5246;DHT22;54412;51.206;6.888;2022-12-29T01:12:08;11.10;99.90
5246;DHT22;54412;51.206;6.888;2022-12-29T01:14:35;11.00;99.90
5246;DHT22;54412;51.206;6.888;2022-12-29T01:17:01;11.10;99.90
5246;DHT22;54412;51.206;6.888;2022-12-29T01:19:28;11.10;99.90
5246;DHT22;54412;51.206;6.888;2022-12-29T01:21:53;11.10;99.90
5246;DHT22;54412;51.206;6.888;2022-12-29T01:24:20;11.20;99.90
5246;DHT22;54412;51.206;6.888;2022-12-29T01:26:47;11.30;99.90
5246;DHT22;54412;51.206;6.888;2022-12-29T01:29:13;11.30;99.90
5246;DHT22;54412;51.206;6.888;2022-12-29T01:31:39;11.30;99.90
5246;DHT22;54412;51.206;6.888;2022-12-29T01:34:05;11.30;99.90
5246;DHT22;54412;51.206;6.888;2022-12-29T01:36:31;11.40;99.90
5246;DHT22;54412;51.206;6.888;2022-12-29T01:38:57;11.40;99.90
5246;DHT22;54412;51.206;6.888;2022-12-29T01:41:23;11.40;99.90
5246;DHT22;54412;51.206;6.888;2022-12-29T01:43:50;11.40;99.90
5246;DHT22;54412;51.206;6.888;2022-12-29T01:48:52;11.40;99.90
5246;DHT22;54412;51.206;6.888;2022-12-29T01:51:24;11.50;99.90
5246;DHT22;54412;51.206;6.888;2022-12-29T01:53:54;11.60;99.90
5246;DHT22;54412;51.206;6.888;2022-12-29T01:56:26;11.60;99.90
5246;DHT22;54412;51.206;6.888;2022-12-29T01:58:59;11.70;99.90
5246;DHT22;54412;51.206;6.888;2022-12-29T02:01:30;11.70;99.90
5246;DHT22;54412;51.206;6.888;2022-12-29T02:03:56;11.80;99.90
5246;DHT22;54412;51.206;6.888;2022-12-29T02:06:25;11.80;99.90
5246;DHT22;54412;51.206;6.888;2022-12-29T02:08:56;11.80;99.90
5246;DHT22;54412;51.206;6.888;2022-12-29T02:11:27;11.80;99.90
5246;DHT22;54412;51.206;6.888;2022-12-29T02:13:54;11.90;99.90
5246;DHT22;54412;51.206;6.888;2022-12-29T02:19:54;11.90;99.90
5246;DHT22;54412;51.206;6.888;2022-12-29T02:42:51;12.00;99.90
5246;DHT22;54412;51.206;6.888;2022-12-29T02:51:33;12.10;99.90
5246;DHT22;54412;51.206;6.888;2022-12-29T02:54:13;12.10;99.90
5246;DHT22;54412;51.206;6.888;2022-12-29T02:56:59;12.10;99.90
5246;DHT22;54412;51.206;6.888;2022-12-29T02:59:25;12.10;99.90
5246;DHT22;54412;51.206;6.888;2022-12-29T03:05:13;12.10;99.90
5246;DHT22;54412;51.206;6.888;2022-12-29T03:11:13;12.20;99.90
5246;DHT22;54412;51.206;6.888;2022-12-29T03:17:08;12.20;99.90
5246;DHT22;54412;51.206;6.888;2022-12-29T03:19:45;12.20;99.90
5246;DHT22;54412;51.206;6.888;2022-12-29T03:22:19;12.20;99.90
5246;DHT22;54412;51.206;6.888;2022-12-29T03:25:10;12.20;99.90
5246;DHT22;54412;51.206;6.888;2022-12-29T03:27:44;12.20;99.90
5246;DHT22;54412;51.206;6.888;2022-12-29T03:30:14;12.20;99.90
5246;DHT22;54412;51.206;6.888;2022-12-29T03:33:10;12.20;99.90
5246;DHT22;54412;51.206;6.888;2022-12-29T03:35:41;12.20;99.90
5246;DHT22;54412;51.206;6.888;2022-12-29T03:38:34;12.30;99.90
5246;DHT22;54412;51.206;6.888;2022-12-29T03:41:08;12.20;99.90
5246;DHT22;54412;51.206;6.888;2022-12-29T03:43:37;12.30;99.90
5246;DHT22;54412;51.206;6.888;2022-12-29T03:46:03;12.20;99.90
5246;DHT22;54412;51.206;6.888;2022-12-29T03:48:28;12.20;99.90
5246;DHT22;54412;51.206;6.888;2022-12-29T03:50:54;12.20;99.90
5246;DHT22;54412;51.206;6.888;2022-12-29T03:53:20;12.20;99.90
5246;DHT22;54412;51.206;6.888;2022-12-29T03:55:45;12.10;99.90
5246;DHT22;54412;51.206;6.888;2022-12-29T03:58:11;12.20;99.90
5246;DHT22;54412;51.206;6.888;2022-12-29T04:00:37;12.10;99.90
5246;DHT22;54412;51.206;6.888;2022-12-29T04:03:02;12.10;99.90
5246;DHT22;54412;51.206;6.888;2022-12-29T04:05:28;12.10;99.90
5246;DHT22;54412;51.206;6.888;2022-12-29T04:07:54;12.10;99.90
5246;DHT22;54412;51.206;6.888;2022-12-29T04:10:19;12.10;99.90
5246;DHT22;54412;51.206;6.888;2022-12-29T04:12:45;12.00;99.90
5246;DHT22;54412;51.206;6.888;2022-12-29T04:15:12;12.00;99.90
5246;DHT22;54412;51.206;6.888;2022-12-29T04:17:38;12.00;99.90
5246;DHT22;54412;51.206;6.888;2022-12-29T04:20:04;12.00;99.90
5246;DHT22;54412;51.206;6.888;2022-12-29T04:22:48;12.00;99.90
5246;DHT22;54412;51.206;6.888;2022-12-29T04:25:15;12.10;99.90
5246;DHT22;54412;51.206;6.888;2022-12-29T04:27:40;12.10;99.90
5246;DHT22;54412;51.206;6.888;2022-12-29T04:30:06;12.00;99.90
5246;DHT22;54412;51.206;6.888;2022-12-29T04:32:33;12.00;99.90
5246;DHT22;54412;51.206;6.888;2022-12-29T04:34:58;12.00;99.90
5246;DHT22;54412;51.206;6.888;2022-12-29T04:37:24;12.10;99.90
5246;DHT22;54412;51.206;6.888;2022-12-29T04:39:49;12.10;99.90
5246;DHT22;54412;51.206;6.888;2022-12-29T04:42:15;12.10;99.90
5246;DHT22;54412;51.206;6.888;2022-12-29T04:44:41;12.20;99.90
5246;DHT22;54412;51.206;6.888;2022-12-29T04:47:06;12.20;99.90
5246;DHT22;54412;51.206;6.888;2022-12-29T04:49:32;12.20;99.90
5246;DHT22;54412;51.206;6.888;2022-12-29T04:51:58;12.30;99.90
5246;DHT22;54412;51.206;6.888;2022-12-29T04:54:23;12.30;99.90
5246;DHT22;54412;51.206;6.888;2022-12-29T04:56:49;12.40;99.90
5246;DHT22;54412;51.206;6.888;2022-12-29T04:59:14;12.50;99.90
5246;DHT22;54412;51.206;6.888;2022-12-29T05:01:40;12.50;99.90
5246;DHT22;54412;51.206;6.888;2022-12-29T05:04:07;12.50;99.90
5246;DHT22;54412;51.206;6.888;2022-12-29T05:06:33;12.60;99.90
5246;DHT22;54412;51.206;6.888;2022-12-29T05:08:58;12.50;99.90
5246;DHT22;54412;51.206;6.888;2022-12-29T05:11:24;12.50;99.90
5246;DHT22;54412;51.206;6.888;2022-12-29T05:13:50;12.60;99.90
5246;DHT22;54412;51.206;6.888;2022-12-29T05:16:15;12.60;99.90
5246;DHT22;54412;51.206;6.888;2022-12-29T05:18:41;12.60;99.90
5246;DHT22;54412;51.206;6.888;2022-12-29T05:21:07;12.60;99.90
5246;DHT22;54412;51.206;6.888;2022-12-29T05:23:32;12.60;99.90
5246;DHT22;54412;51.206;6.888;2022-12-29T05:25:58;12.60;99.90
5246;DHT22;54412;51.206;6.888;2022-12-29T05:28:23;12.50;99.90
5246;DHT22;54412;51.206;6.888;2022-12-29T05:30:50;12.60;99.90
5246;DHT22;54412;51.206;6.888;2022-12-29T05:33:17;12.60;99.90
5246;DHT22;54412;51.206;6.888;2022-12-29T05:35:43;12.60;99.90
5246;DHT22;54412;51.206;6.888;2022-12-29T05:38:09;12.60;99.90
5246;DHT22;54412;51.206;6.888;2022-12-29T05:40:35;12.60;99.90
5246;DHT22;54412;51.206;6.888;2022-12-29T05:43:01;12.50;99.90
5246;DHT22;54412;51.206;6.888;2022-12-29T05:45:26;12.50;99.90
5246;DHT22;54412;51.206;6.888;2022-12-29T05:47:52;12.50;99.90
5246;DHT22;54412;51.206;6.888;2022-12-29T05:50:18;12.40;99.90
5246;DHT22;54412;51.206;6.888;2022-12-29T05:52:43;12.50;99.90
5246;DHT22;54412;51.206;6.888;2022-12-29T05:55:09;12.40;99.90
5246;DHT22;54412;51.206;6.888;2022-12-29T05:57:35;12.40;99.90
5246;DHT22;54412;51.206;6.888;2022-12-29T06:00:02;12.40;99.90
5246;DHT22;54412;51.206;6.888;2022-12-29T06:02:28;12.40;99.90
5246;DHT22;54412;51.206;6.888;2022-12-29T06:04:54;12.40;99.90
5246;DHT22;54412;51.206;6.888;2022-12-29T06:07:20;12.40;99.90
5246;DHT22;54412;51.206;6.888;2022-12-29T06:09:45;12.40;99.90
5246;DHT22;54412;51.206;6.888;2022-12-29T06:12:11;12.30;99.90
5246;DHT22;54412;51.206;6.888;2022-12-29T06:14:37;12.30;99.90
5246;DHT22;54412;51.206;6.888;2022-12-29T06:17:02;12.30;99.90
5246;DHT22;54412;51.206;6.888;2022-12-29T06:19:28;12.30;99.90
5246;DHT22;54412;51.206;6.888;2022-12-29T06:21:54;12.30;99.90
5246;DHT22;54412;51.206;6.888;2022-12-29T06:24:20;12.30;99.90
5246;DHT22;54412;51.206;6.888;2022-12-29T06:26:46;12.30;99.90
5246;DHT22;54412;51.206;6.888;2022-12-29T06:29:12;12.20;99.90
5246;DHT22;54412;51.206;6.888;2022-12-29T06:31:42;12.20;99.90
5246;DHT22;54412;51.206;6.888;2022-12-29T06:34:10;12.20;99.90
5246;DHT22;54412;51.206;6.888;2022-12-29T06:36:37;12.20;99.90
5246;DHT22;54412;51.206;6.888;2022-12-29T06:39:04;12.20;99.90
5246;DHT22;54412;51.206;6.888;2022-12-29T06:41:29;12.20;99.90
5246;DHT22;54412;51.206;6.888;2022-12-29T06:43:55;12.30;99.90
5246;DHT22;54412;51.206;6.888;2022-12-29T06:46:21;12.20;99.90
5246;DHT22;54412;51.206;6.888;2022-12-29T06:48:46;12.20;99.90
5246;DHT22;54412;51.206;6.888;2022-12-29T06:51:12;12.20;99.90
5246;DHT22;54412;51.206;6.888;2022-12-29T06:53:38;12.20;99.90
5246;DHT22;54412;51.206;6.888;2022-12-29T06:56:04;12.20;99.90
5246;DHT22;54412;51.206;6.888;2022-12-29T06:58:29;12.20;99.90
5246;DHT22;54412;51.206;6.888;2022-12-29T07:00:55;12.20;99.90
5246;DHT22;54412;51.206;6.888;2022-12-29T07:03:21;12.20;99.90
5246;DHT22;54412;51.206;6.888;2022-12-29T07:05:46;12.20;99.90
5246;DHT22;54412;51.206;6.888;2022-12-29T07:08:12;12.20;99.90
5246;DHT22;54412;51.206;6.888;2022-12-29T07:10:38;12.20;99.90
5246;DHT22;54412;51.206;6.888;2022-12-29T07:13:04;12.20;99.90
5246;DHT22;54412;51.206;6.888;2022-12-29T07:15:29;12.30;99.90
5246;DHT22;54412;51.206;6.888;2022-12-29T07:17:55;12.20;99.90
5246;DHT22;54412;51.206;6.888;2022-12-29T07:20:21;12.10;99.90
5246;DHT22;54412;51.206;6.888;2022-12-29T07:22:46;12.20;99.90
5246;DHT22;54412;51.206;6.888;2022-12-29T07:25:12;12.20;99.90
5246;DHT22;54412;51.206;6.888;2022-12-29T07:27:39;12.10;99.90
5246;DHT22;54412;51.206;6.888;2022-12-29T07:30:05;12.10;99.90
5246;DHT22;54412;51.206;6.888;2022-12-29T07:32:34;12.20;99.90
5246;DHT22;54412;51.206;6.888;2022-12-29T07:34:59;12.10;99.90
5246;DHT22;54412;51.206;6.888;2022-12-29T07:37:25;12.10;99.90
5246;DHT22;54412;51.206;6.888;2022-12-29T07:39:51;12.10;99.90
5246;DHT22;54412;51.206;6.888;2022-12-29T07:42:16;12.10;99.90
5246;DHT22;54412;51.206;6.888;2022-12-29T07:44:42;12.10;99.90
5246;DHT22;54412;51.206;6.888;2022-12-29T07:47:08;12.10;99.90
5246;DHT22;54412;51.206;6.888;2022-12-29T07:49:33;12.10;99.90
5246;DHT22;54412;51.206;6.888;2022-12-29T07:51:59;12.00;99.90
5246;DHT22;54412;51.206;6.888;2022-12-29T07:54:25;12.00;99.90
5246;DHT22;54412;51.206;6.888;2022-12-29T07:56:50;12.10;99.90
5246;DHT22;54412;51.206;6.888;2022-12-29T07:59:17;12.10;99.90
5246;DHT22;54412;51.206;6.888;2022-12-29T08:01:42;12.10;99.90
5246;DHT22;54412;51.206;6.888;2022-12-29T08:04:08;12.10;99.90
5246;DHT22;54412;51.206;6.888;2022-12-29T08:06:34;12.10;99.90
5246;DHT22;54412;51.206;6.888;2022-12-29T08:09:00;12.10;99.90
5246;DHT22;54412;51.206;6.888;2022-12-29T08:11:27;12.20;99.90
5246;DHT22;54412;51.206;6.888;2022-12-29T08:13:52;12.10;99.90
5246;DHT22;54412;51.206;6.888;2022-12-29T08:16:18;12.10;99.90
5246;DHT22;54412;51.206;6.888;2022-12-29T08:18:44;12.10;99.90
5246;DHT22;54412;51.206;6.888;2022-12-29T08:21:10;12.00;99.90
5246;DHT22;54412;51.206;6.888;2022-12-29T08:23:36;12.10;99.90
5246;DHT22;54412;51.206;6.888;2022-12-29T08:26:03;12.00;99.90
5246;DHT22;54412;51.206;6.888;2022-12-29T08:28:31;12.00;99.90
5246;DHT22;54412;51.206;6.888;2022-12-29T08:30:58;12.00;99.90
5246;DHT22;54412;51.206;6.888;2022-12-29T08:33:26;12.10;99.90
5246;DHT22;54412;51.206;6.888;2022-12-29T08:35:53;12.00;99.90
5246;DHT22;54412;51.206;6.888;2022-12-29T08:38:24;12.00;99.90
5246;DHT22;54412;51.206;6.888;2022-12-29T08:40:51;12.00;99.90
5246;DHT22;54412;51.206;6.888;2022-12-29T08:43:17;12.00;99.90
5246;DHT22;54412;51.206;6.888;2022-12-29T08:45:43;12.00;99.90
5246;DHT22;54412;51.206;6.888;2022-12-29T08:48:09;12.00;99.90
5246;DHT22;54412;51.206;6.888;2022-12-29T08:50:35;11.80;99.90
5246;DHT22;54412;51.206;6.888;2022-12-29T08:53:00;11.60;99.90
5246;DHT22;54412;51.206;6.888;2022-12-29T08:55:26;11.30;99.90
5246;DHT22;54412;51.206;6.888;2022-12-29T08:57:52;11.10;99.90
5246;DHT22;54412;51.206;6.888;2022-12-29T09:00:17;11.00;99.90
5246;DHT22;54412;51.206;6.888;2022-12-29T09:02:43;10.90;99.90
5246;DHT22;54412;51.206;6.888;2022-12-29T09:05:09;11.10;99.90
5246;DHT22;54412;51.206;6.888;2022-12-29T09:07:35;11.20;99.90
5246;DHT22;54412;51.206;6.888;2022-12-29T09:10:01;11.20;99.90
5246;DHT22;54412;51.206;6.888;2022-12-29T09:12:27;11.30;99.90
5246;DHT22;54412;51.206;6.888;2022-12-29T09:14:53;11.30;99.90
5246;DHT22;54412;51.206;6.888;2022-12-29T09:17:18;11.50;99.90
5246;DHT22;54412;51.206;6.888;2022-12-29T09:20:03;11.60;99.90
5246;DHT22;54412;51.206;6.888;2022-12-29T09:22:29;11.80;99.90
5246;DHT22;54412;51.206;6.888;2022-12-29T09:24:55;11.80;99.90
5246;DHT22;54412;51.206;6.888;2022-12-29T09:27:21;11.90;99.90
5246;DHT22;54412;51.206;6.888;2022-12-29T09:29:46;12.00;99.90
5246;DHT22;54412;51.206;6.888;2022-12-29T09:32:12;11.90;99.90
5246;DHT22;54412;51.206;6.888;2022-12-29T09:34:38;11.90;99.90
5246;DHT22;54412;51.206;6.888;2022-12-29T09:37:04;12.00;99.90
5246;DHT22;54412;51.206;6.888;2022-12-29T09:39:29;12.00;99.90
5246;DHT22;54412;51.206;6.888;2022-12-29T09:42:12;12.10;99.90
5246;DHT22;54412;51.206;6.888;2022-12-29T09:47:51;12.20;99.90
5246;DHT22;54412;51.206;6.888;2022-12-29T09:55:57;12.10;99.90
5246;DHT22;54412;51.206;6.888;2022-12-29T09:58:38;12.10;99.90
5246;DHT22;54412;51.206;6.888;2022-12-29T10:04:00;12.20;99.90
5246;DHT22;54412;51.206;6.888;2022-12-29T10:06:42;12.30;99.90
5246;DHT22;54412;51.206;6.888;2022-12-29T10:12:30;12.70;99.90
5246;DHT22;54412;51.206;6.888;2022-12-29T10:18:18;12.60;99.90
5246;DHT22;54412;51.206;6.888;2022-12-29T10:21:07;12.50;99.90
5246;DHT22;54412;51.206;6.888;2022-12-29T10:23:46;12.60;99.90
5246;DHT22;54412;51.206;6.888;2022-12-29T10:26:26;12.50;99.90
5246;DHT22;54412;51.206;6.888;2022-12-29T10:29:05;12.60;99.90
5246;DHT22;54412;51.206;6.888;2022-12-29T10:31:37;12.50;99.90
5246;DHT22;54412;51.206;6.888;2022-12-29T10:34:27;12.60;99.90
5246;DHT22;54412;51.206;6.888;2022-12-29T10:36:58;12.50;99.90
5246;DHT22;54412;51.206;6.888;2022-12-29T10:39:36;12.50;99.90
5246;DHT22;54412;51.206;6.888;2022-12-29T10:42:14;12.60;99.90
5246;DHT22;54412;51.206;6.888;2022-12-29T10:44:46;12.50;99.90
5246;DHT22;54412;51.206;6.888;2022-12-29T10:47:17;12.60;99.90
5246;DHT22;54412;51.206;6.888;2022-12-29T10:49:48;12.50;99.90
5246;DHT22;54412;51.206;6.888;2022-12-29T10:52:16;12.70;99.90
5246;DHT22;54412;51.206;6.888;2022-12-29T10:54:53;12.90;99.90
5246;DHT22;54412;51.206;6.888;2022-12-29T10:57:31;13.00;99.90
5246;DHT22;54412;51.206;6.888;2022-12-29T10:59:59;12.70;99.90
5246;DHT22;54412;51.206;6.888;2022-12-29T11:05:44;12.60;99.90
5246;DHT22;54412;51.206;6.888;2022-12-29T11:08:19;12.50;99.90
5246;DHT22;54412;51.206;6.888;2022-12-29T11:11:00;12.50;99.90
5246;DHT22;54412;51.206;6.888;2022-12-29T11:13:31;12.50;99.90
5246;DHT22;54412;51.206;6.888;2022-12-29T11:15:59;12.40;99.90
5246;DHT22;54412;51.206;6.888;2022-12-29T11:18:36;12.50;99.90
5246;DHT22;54412;51.206;6.888;2022-12-29T11:21:05;12.40;99.90
5246;DHT22;54412;51.206;6.888;2022-12-29T11:24:04;12.40;99.90
5246;DHT22;54412;51.206;6.888;2022-12-29T11:26:52;12.40;99.90
5246;DHT22;54412;51.206;6.888;2022-12-29T11:29:25;12.40;99.90
5246;DHT22;54412;51.206;6.888;2022-12-29T11:31:58;12.30;99.90
5246;DHT22;54412;51.206;6.888;2022-12-29T11:34:30;12.30;99.90
5246;DHT22;54412;51.206;6.888;2022-12-29T11:37:02;12.20;99.90
5246;DHT22;54412;51.206;6.888;2022-12-29T11:39:58;12.30;99.90
5246;DHT22;54412;51.206;6.888;2022-12-29T11:42:40;12.30;99.90
5246;DHT22;54412;51.206;6.888;2022-12-29T11:45:19;12.20;99.90
5246;DHT22;54412;51.206;6.888;2022-12-29T11:47:54;12.20;99.90
5246;DHT22;54412;51.206;6.888;2022-12-29T11:50:26;12.20;99.90
5246;DHT22;54412;51.206;6.888;2022-12-29T11:56:14;12.20;99.90
5246;DHT22;54412;51.206;6.888;2022-12-29T11:58:41;12.20;99.90
5246;DHT22;54412;51.206;6.888;2022-12-29T12:01:16;12.10;99.90
5246;DHT22;54412;51.206;6.888;2022-12-29T12:04:09;12.10;99.90
5246;DHT22;54412;51.206;6.888;2022-12-29T12:06:44;12.10;99.90
5246;DHT22;54412;51.206;6.888;2022-12-29T12:09:32;12.10;99.90
5246;DHT22;54412;51.206;6.888;2022-12-29T12:12:03;12.10;99.90
5246;DHT22;54412;51.206;6.888;2022-12-29T12:14:36;12.00;99.90
5246;DHT22;54412;51.206;6.888;2022-12-29T12:17:18;12.00;99.90
5246;DHT22;54412;51.206;6.888;2022-12-29T12:20:06;12.00;99.90
5246;DHT22;54412;51.206;6.888;2022-12-29T12:22:51;12.00;99.90
5246;DHT22;54412;51.206;6.888;2022-12-29T12:25:36;12.00;99.90
5246;DHT22;54412;51.206;6.888;2022-12-29T12:31:18;11.90;99.90
5246;DHT22;54412;51.206;6.888;2022-12-29T12:34:02;11.90;99.90
5246;DHT22;54412;51.206;6.888;2022-12-29T12:42:39;11.90;99.90
5246;DHT22;54412;51.206;6.888;2022-12-29T12:51:36;11.80;99.90
5246;DHT22;54412;51.206;6.888;2022-12-29T13:00:19;11.90;99.90
5246;DHT22;54412;51.206;6.888;2022-12-29T13:03:04;11.90;99.90
5246;DHT22;54412;51.206;6.888;2022-12-29T13:14:30;11.90;99.90
5246;DHT22;54412;51.206;6.888;2022-12-29T13:23:14;11.90;99.90
5246;DHT22;54412;51.206;6.888;2022-12-29T13:26:12;11.90;99.90
5246;DHT22;54412;51.206;6.888;2022-12-29T13:35:07;11.80;99.90
5246;DHT22;54412;51.206;6.888;2022-12-29T13:37:49;11.80;99.90
5246;DHT22;54412;51.206;6.888;2022-12-29T13:40:24;11.90;99.90
5246;DHT22;54412;51.206;6.888;2022-12-29T13:42:54;12.00;99.90
5246;DHT22;54412;51.206;6.888;2022-12-29T13:45:24;12.20;99.90
5246;DHT22;54412;51.206;6.888;2022-12-29T13:48:05;13.10;99.90
5246;DHT22;54412;51.206;6.888;2022-12-29T13:50:39;13.50;99.90
5246;DHT22;54412;51.206;6.888;2022-12-29T13:56:14;12.50;99.90
5246;DHT22;54412;51.206;6.888;2022-12-29T13:59:14;12.30;99.90
5246;DHT22;54412;51.206;6.888;2022-12-29T14:01:53;12.20;99.90
5246;DHT22;54412;51.206;6.888;2022-12-29T14:04:26;12.30;99.90
5246;DHT22;54412;51.206;6.888;2022-12-29T14:07:05;12.20;99.90
5246;DHT22;54412;51.206;6.888;2022-12-29T14:09:46;12.30;99.90
5246;DHT22;54412;51.206;6.888;2022-12-29T14:12:26;12.20;99.90
5246;DHT22;54412;51.206;6.888;2022-12-29T14:15:06;12.10;99.90
5246;DHT22;54412;51.206;6.888;2022-12-29T14:20:29;11.90;99.90
5246;DHT22;54412;51.206;6.888;2022-12-29T14:23:01;12.00;99.90
5246;DHT22;54412;51.206;6.888;2022-12-29T14:26:09;11.90;99.90
5246;DHT22;54412;51.206;6.888;2022-12-29T14:28:48;11.80;99.90
5246;DHT22;54412;51.206;6.888;2022-12-29T14:33:40;11.70;99.90
5246;DHT22;54412;51.206;6.888;2022-12-29T14:39:32;11.60;99.90
5246;DHT22;54412;51.206;6.888;2022-12-29T14:45:00;11.60;99.90
5246;DHT22;54412;51.206;6.888;2022-12-29T14:52:30;11.60;99.90
5246;DHT22;54412;51.206;6.888;2022-12-29T14:58:00;11.50;99.90
5246;DHT22;54412;51.206;6.888;2022-12-29T15:00:31;11.50;99.90
5246;DHT22;54412;51.206;6.888;2022-12-29T15:03:17;11.50;99.90
5246;DHT22;54412;51.206;6.888;2022-12-29T15:05:55;11.50;99.90
5246;DHT22;54412;51.206;6.888;2022-12-29T15:08:25;11.50;99.90
5246;DHT22;54412;51.206;6.888;2022-12-29T15:11:10;11.50;99.90
5246;DHT22;54412;51.206;6.888;2022-12-29T15:13:41;11.40;99.90
5246;DHT22;54412;51.206;6.888;2022-12-29T15:18:51;11.40;99.90
5246;DHT22;54412;51.206;6.888;2022-12-29T15:21:24;11.40;99.90
5246;DHT22;54412;51.206;6.888;2022-12-29T15:23:54;11.40;99.90
5246;DHT22;54412;51.206;6.888;2022-12-29T15:26:21;11.30;99.90
5246;DHT22;54412;51.206;6.888;2022-12-29T15:28:51;11.30;99.90
5246;DHT22;54412;51.206;6.888;2022-12-29T15:31:21;11.30;99.90
5246;DHT22;54412;51.206;6.888;2022-12-29T15:33:53;11.20;99.90
5246;DHT22;54412;51.206;6.888;2022-12-29T15:36:28;11.30;99.90
5246;DHT22;54412;51.206;6.888;2022-12-29T15:39:20;11.40;99.90
5246;DHT22;54412;51.206;6.888;2022-12-29T15:42:03;11.30;99.90
5246;DHT22;54412;51.206;6.888;2022-12-29T15:44:44;11.40;99.90
5246;DHT22;54412;51.206;6.888;2022-12-29T15:47:22;11.20;99.90
5246;DHT22;54412;51.206;6.888;2022-12-29T15:49:53;11.20;99.90
5246;DHT22;54412;51.206;6.888;2022-12-29T15:52:41;11.20;99.90
5246;DHT22;54412;51.206;6.888;2022-12-29T15:55:19;11.20;99.90
5246;DHT22;54412;51.206;6.888;2022-12-29T15:57:56;11.30;99.90
5246;DHT22;54412;51.206;6.888;2022-12-29T16:03:01;11.30;99.90
5246;DHT22;54412;51.206;6.888;2022-12-29T16:05:34;11.10;99.90
5246;DHT22;54412;51.206;6.888;2022-12-29T16:08:02;11.10;99.90
5246;DHT22;54412;51.206;6.888;2022-12-29T16:10:40;11.10;99.90
5246;DHT22;54412;51.206;6.888;2022-12-29T16:13:15;11.20;99.90
5246;DHT22;54412;51.206;6.888;2022-12-29T16:15:46;11.20;99.90
5246;DHT22;54412;51.206;6.888;2022-12-29T16:18:28;11.20;99.90
5246;DHT22;54412;51.206;6.888;2022-12-29T16:20:59;11.30;99.90
5246;DHT22;54412;51.206;6.888;2022-12-29T16:23:28;11.30;99.90
5246;DHT22;54412;51.206;6.888;2022-12-29T16:25:56;11.30;99.90
5246;DHT22;54412;51.206;6.888;2022-12-29T16:28:27;11.30;99.90
5246;DHT22;54412;51.206;6.888;2022-12-29T16:31:49;11.30;99.90
5246;DHT22;54412;51.206;6.888;2022-12-29T16:34:28;11.30;99.90
5246;DHT22;54412;51.206;6.888;2022-12-29T16:37:00;11.20;99.90
5246;DHT22;54412;51.206;6.888;2022-12-29T16:39:46;11.10;99.90
5246;DHT22;54412;51.206;6.888;2022-12-29T16:51:18;11.10;99.90
5246;DHT22;54412;51.206;6.888;2022-12-29T16:53:51;11.00;99.90
5246;DHT22;54412;51.206;6.888;2022-12-29T16:56:21;10.90;99.90
5246;DHT22;54412;51.206;6.888;2022-12-29T16:58:57;11.00;99.90
5246;DHT22;54412;51.206;6.888;2022-12-29T17:01:27;10.90;99.90
5246;DHT22;54412;51.206;6.888;2022-12-29T17:03:58;11.00;99.90
5246;DHT22;54412;51.206;6.888;2022-12-29T17:06:26;11.10;99.90
5246;DHT22;54412;51.206;6.888;2022-12-29T17:08:52;11.10;99.90
5246;DHT22;54412;51.206;6.888;2022-12-29T17:11:22;11.10;99.90
5246;DHT22;54412;51.206;6.888;2022-12-29T17:16:53;10.90;99.90
5246;DHT22;54412;51.206;6.888;2022-12-29T17:19:23;10.90;99.90
5246;DHT22;54412;51.206;6.888;2022-12-29T17:22:00;10.90;99.90
5246;DHT22;54412;51.206;6.888;2022-12-29T17:24:27;10.90;99.90
5246;DHT22;54412;51.206;6.888;2022-12-29T17:26:58;10.80;99.90
5246;DHT22;54412;51.206;6.888;2022-12-29T17:29:30;10.90;99.90
5246;DHT22;54412;51.206;6.888;2022-12-29T17:32:06;10.80;99.90
5246;DHT22;54412;51.206;6.888;2022-12-29T17:34:36;10.80;99.90
5246;DHT22;54412;51.206;6.888;2022-12-29T17:37:02;10.70;99.90
5246;DHT22;54412;51.206;6.888;2022-12-29T17:39:35;10.70;99.90
5246;DHT22;54412;51.206;6.888;2022-12-29T17:42:00;10.70;99.90
5246;DHT22;54412;51.206;6.888;2022-12-29T17:44:26;10.80;99.90
5246;DHT22;54412;51.206;6.888;2022-12-29T17:46:52;10.80;99.90
5246;DHT22;54412;51.206;6.888;2022-12-29T17:49:17;10.70;99.90
5246;DHT22;54412;51.206;6.888;2022-12-29T17:51:44;10.70;99.90
5246;DHT22;54412;51.206;6.888;2022-12-29T17:54:22;10.50;99.90
5246;DHT22;54412;51.206;6.888;2022-12-29T17:56:50;10.50;99.90
5246;DHT22;54412;51.206;6.888;2022-12-29T17:59:17;10.50;99.90
5246;DHT22;54412;51.206;6.888;2022-12-29T18:01:45;10.50;99.90
5246;DHT22;54412;51.206;6.888;2022-12-29T18:04:13;10.40;99.90
5246;DHT22;54412;51.206;6.888;2022-12-29T18:06:41;10.40;99.90
5246;DHT22;54412;51.206;6.888;2022-12-29T18:09:08;10.40;99.90
5246;DHT22;54412;51.206;6.888;2022-12-29T18:11:37;10.40;99.90
5246;DHT22;54412;51.206;6.888;2022-12-29T18:14:12;10.40;99.90
5246;DHT22;54412;51.206;6.888;2022-12-29T18:16:39;10.40;99.90
5246;DHT22;54412;51.206;6.888;2022-12-29T18:19:04;10.30;99.90
5246;DHT22;54412;51.206;6.888;2022-12-29T18:21:30;10.30;99.90
5246;DHT22;54412;51.206;6.888;2022-12-29T18:23:56;10.30;99.90
5246;DHT22;54412;51.206;6.888;2022-12-29T18:26:24;10.40;99.90
5246;DHT22;54412;51.206;6.888;2022-12-29T18:28:56;10.30;99.90
5246;DHT22;54412;51.206;6.888;2022-12-29T18:31:27;10.40;99.90
5246;DHT22;54412;51.206;6.888;2022-12-29T18:33:55;10.30;99.90
5246;DHT22;54412;51.206;6.888;2022-12-29T18:36:23;10.30;99.90
5246;DHT22;54412;51.206;6.888;2022-12-29T18:38:49;10.30;99.90
5246;DHT22;54412;51.206;6.888;2022-12-29T18:41:23;10.30;99.90
5246;DHT22;54412;51.206;6.888;2022-12-29T18:43:50;10.30;99.90